createdAt,value
2022-11-22T00:00:37.798Z,15.80
2022-11-22T00:03:04.761Z,16.23
2022-11-22T00:05:31.805Z,14.83
2022-11-22T00:07:59.091Z,14.00
2022-11-22T00:10:26.431Z,15.67
2022-11-22T00:12:55.066Z,16.53
2022-11-22T00:15:22.089Z,14.20
2022-11-22T00:17:49.133Z,16.67
2022-11-22T00:20:16.226Z,13.20
2022-11-22T00:22:44.927Z,14.43
2022-11-22T00:25:12.356Z,16.10
2022-11-22T00:27:39.415Z,13.50
2022-11-22T00:30:08.966Z,14.53
2022-11-22T00:32:36.269Z,13.37
2022-11-22T00:35:03.524Z,17.47
2022-11-22T00:37:30.490Z,15.10
2022-11-22T00:39:57.489Z,14.13
2022-11-22T00:42:25.543Z,16.60
2022-11-22T00:44:52.537Z,12.77
2022-11-22T00:47:21.038Z,17.20
2022-11-22T00:49:47.990Z,17.63
2022-11-22T00:52:15.227Z,15.80
2022-11-22T00:54:42.673Z,16.60
2022-11-22T00:57:10.847Z,13.53
2022-11-22T00:59:37.795Z,16.17
2022-11-22T01:02:04.798Z,15.67
2022-11-22T01:04:33.077Z,17.50
2022-11-22T01:07:00.195Z,17.17
2022-11-22T01:09:27.252Z,18.07
2022-11-22T01:11:54.945Z,17.70
2022-11-22T01:14:22.075Z,16.20
2022-11-22T01:16:49.508Z,17.73
2022-11-22T01:19:16.516Z,19.20
2022-11-22T01:21:45.453Z,18.90
2022-11-22T01:24:12.404Z,18.60
2022-11-22T01:26:39.522Z,19.23
2022-11-22T01:29:06.512Z,18.53
2022-11-22T01:31:33.694Z,20.27
2022-11-22T01:34:00.710Z,18.43
2022-11-22T01:36:27.972Z,22.50
2022-11-22T01:38:56.310Z,22.43
2022-11-22T01:41:23.543Z,23.60
2022-11-22T01:43:50.555Z,20.43
2022-11-22T01:46:32.485Z,23.17
2022-11-22T01:49:04.482Z,23.57
2022-11-22T01:51:38.566Z,23.50
2022-11-22T01:54:15.239Z,25.80
2022-11-22T01:56:50.231Z,26.33
2022-11-22T01:59:24.486Z,23.87
2022-11-22T02:01:53.074Z,26.03
2022-11-22T02:04:23.830Z,22.77
2022-11-22T02:06:59.354Z,26.80
2022-11-22T02:09:29.737Z,25.07
2022-11-22T02:12:01.731Z,30.23
2022-11-22T02:14:30.074Z,29.17
2022-11-22T02:16:57.224Z,38.00
2022-11-22T02:19:36.601Z,28.53
2022-11-22T02:22:19.528Z,31.37
2022-11-22T02:24:56.812Z,30.07
2022-11-22T02:27:26.530Z,30.87
2022-11-22T02:29:53.699Z,35.27
2022-11-22T02:32:21.059Z,31.73
2022-11-22T02:34:51.803Z,30.60
2022-11-22T02:37:25.295Z,29.67
2022-11-22T02:39:59.125Z,35.23
2022-11-22T02:42:31.074Z,33.43
2022-11-22T02:44:58.085Z,32.27
2022-11-22T02:47:25.725Z,34.80
2022-11-22T02:49:52.993Z,35.40
2022-11-22T02:52:20.206Z,32.50
2022-11-22T02:54:48.365Z,37.23
2022-11-22T02:57:15.470Z,34.57
2022-11-22T02:59:43.811Z,31.03
2022-11-22T03:02:10.845Z,35.60
2022-11-22T03:04:38.309Z,35.73
2022-11-22T03:07:05.621Z,33.83
2022-11-22T03:09:33.084Z,31.03
2022-11-22T03:12:00.379Z,33.40
2022-11-22T03:14:28.176Z,37.73
2022-11-22T03:16:56.507Z,37.10
2022-11-22T03:19:23.550Z,35.90
2022-11-22T03:21:50.686Z,33.23
2022-11-22T03:24:20.059Z,35.77
2022-11-22T03:26:49.164Z,36.40
2022-11-22T03:29:17.800Z,31.53
2022-11-22T03:31:44.782Z,31.73
2022-11-22T03:34:13.878Z,34.10
2022-11-22T03:36:40.859Z,30.00
2022-11-22T03:39:08.195Z,35.10
2022-11-22T03:41:35.207Z,30.60
2022-11-22T03:44:03.993Z,32.30
2022-11-22T03:46:30.941Z,28.77
2022-11-22T03:48:57.923Z,28.43
2022-11-22T03:51:27.010Z,33.07
2022-11-22T03:53:53.981Z,29.67
2022-11-22T03:56:21.029Z,30.93
2022-11-22T03:58:47.994Z,30.23
2022-11-22T04:01:16.702Z,26.70
2022-11-22T04:03:44.081Z,29.13
2022-11-22T04:06:11.049Z,29.87
2022-11-22T04:08:39.434Z,28.27
2022-11-22T04:11:06.440Z,26.20
2022-11-22T04:13:52.287Z,29.77
2022-11-22T04:16:19.245Z,26.57
2022-11-22T04:18:46.326Z,29.30
2022-11-22T04:21:31.823Z,28.37
2022-11-22T04:24:18.870Z,27.33
2022-11-22T04:26:46.305Z,25.80
2022-11-22T04:29:13.252Z,26.03
2022-11-22T04:31:58.762Z,28.90
2022-11-22T04:34:25.721Z,25.13
2022-11-22T04:36:52.828Z,26.00
2022-11-22T04:39:21.559Z,25.97
2022-11-22T04:42:08.524Z,25.77
2022-11-22T04:44:41.719Z,26.23
2022-11-22T04:47:08.912Z,26.30
2022-11-22T04:49:36.231Z,28.20
2022-11-22T04:52:23.759Z,27.67
2022-11-22T04:54:52.027Z,25.70
2022-11-22T04:57:19.070Z,23.90
2022-11-22T04:59:46.002Z,23.47
2022-11-22T05:02:13.022Z,26.33
2022-11-22T05:04:39.948Z,25.07
2022-11-22T05:07:06.987Z,22.33
2022-11-22T05:09:33.966Z,30.40
2022-11-22T05:12:02.221Z,30.43
2022-11-22T05:14:29.156Z,28.00
2022-11-22T05:16:56.282Z,24.10
2022-11-22T05:19:23.216Z,29.70
2022-11-22T05:21:50.150Z,25.30
2022-11-22T05:24:17.101Z,26.57
2022-11-22T05:26:44.088Z,25.57
2022-11-22T05:29:12.423Z,25.20
2022-11-22T05:31:40.212Z,25.70
2022-11-22T05:34:07.228Z,26.10
2022-11-22T05:36:35.225Z,25.40
2022-11-22T05:39:03.967Z,24.67
2022-11-22T05:41:31.064Z,24.53
2022-11-22T05:43:58.452Z,28.03
2022-11-22T05:46:28.871Z,26.93
2022-11-22T05:48:57.631Z,27.17
2022-11-22T05:51:33.567Z,21.83
2022-11-22T05:54:02.100Z,25.87
2022-11-22T05:56:29.198Z,26.73
2022-11-22T05:58:56.142Z,26.50
2022-11-22T06:01:25.749Z,28.27
2022-11-22T06:03:52.826Z,23.13
2022-11-22T06:06:20.601Z,27.03
2022-11-22T06:08:48.984Z,26.70
2022-11-22T06:11:19.961Z,26.83
2022-11-22T06:13:50.133Z,25.10
2022-11-22T06:16:17.896Z,23.23
2022-11-22T06:18:46.500Z,27.20
2022-11-22T06:21:16.612Z,22.07
2022-11-22T06:23:43.672Z,22.53
2022-11-22T06:26:13.480Z,26.10
2022-11-22T06:28:41.646Z,27.53
2022-11-22T06:31:12.451Z,24.03
2022-11-22T06:33:40.573Z,25.87
2022-11-22T06:36:11.007Z,24.20
2022-11-22T06:38:39.850Z,26.37
2022-11-22T06:41:10.616Z,23.87
2022-11-22T06:43:47.967Z,25.13
2022-11-22T06:46:17.303Z,24.27
2022-11-22T06:48:44.711Z,25.83
2022-11-22T06:51:16.092Z,27.70
2022-11-22T06:53:48.505Z,25.70
2022-11-22T06:56:18.397Z,22.60
2022-11-22T06:58:46.459Z,24.60
2022-11-22T07:01:16.375Z,25.97
2022-11-22T07:03:44.131Z,23.50
2022-11-22T07:06:15.084Z,27.20
2022-11-22T07:08:43.587Z,25.40
2022-11-22T07:11:13.404Z,27.40
2022-11-22T07:13:41.152Z,24.30
2022-11-22T07:16:11.294Z,26.13
2022-11-22T07:18:39.077Z,25.27
2022-11-22T07:21:12.807Z,26.53
2022-11-22T07:23:44.994Z,29.33
2022-11-22T07:26:14.640Z,25.53
2022-11-22T07:28:41.982Z,28.50
2022-11-22T07:31:11.794Z,29.10
2022-11-22T07:33:39.394Z,26.27
2022-11-22T07:36:09.001Z,27.87
2022-11-22T07:38:37.235Z,27.40
2022-11-22T07:41:06.896Z,31.40
2022-11-22T07:43:34.247Z,26.90
2022-11-22T07:46:01.932Z,25.83
2022-11-22T07:48:29.248Z,24.17
2022-11-22T07:50:56.420Z,32.63
2022-11-22T07:53:24.162Z,25.30
2022-11-22T07:55:51.193Z,27.43
2022-11-22T07:58:20.236Z,29.63
2022-11-22T08:00:47.238Z,26.93
2022-11-22T08:03:17.597Z,30.50
2022-11-22T08:05:45.016Z,28.00
2022-11-22T08:08:12.029Z,27.47
2022-11-22T08:10:43.843Z,26.00
2022-11-22T08:13:10.855Z,26.40
2022-11-22T08:15:39.171Z,24.30
2022-11-22T08:18:10.513Z,30.77
2022-11-22T08:20:37.485Z,31.07
2022-11-22T08:23:04.469Z,27.93
2022-11-22T08:25:31.446Z,25.70
2022-11-22T08:28:01.899Z,25.83
2022-11-22T08:30:31.934Z,26.67
2022-11-22T08:33:00.694Z,28.77
2022-11-22T08:35:27.705Z,23.73
2022-11-22T08:37:57.721Z,23.73
2022-11-22T08:40:24.815Z,25.97
2022-11-22T08:42:55.516Z,26.67
2022-11-22T08:45:22.683Z,23.67
2022-11-22T08:47:49.969Z,26.70
2022-11-22T08:50:19.064Z,26.07
2022-11-22T08:52:46.116Z,26.60
2022-11-22T08:55:13.303Z,22.67
2022-11-22T08:57:40.288Z,27.63
2022-11-22T09:00:09.313Z,28.00
2022-11-22T09:02:36.324Z,23.37
2022-11-22T09:05:03.852Z,28.77
2022-11-22T09:10:19.256Z,25.43
2022-11-22T09:12:46.657Z,23.73
2022-11-22T09:15:16.093Z,25.63
2022-11-22T09:17:46.341Z,25.63
2022-11-22T09:20:18.095Z,22.80
2022-11-22T09:22:48.259Z,25.63
2022-11-22T09:25:15.626Z,25.03
2022-11-22T09:27:42.848Z,24.50
2022-11-22T09:30:12.510Z,23.30
2022-11-22T09:32:44.657Z,23.20
2022-11-22T09:35:12.533Z,22.90
2022-11-22T09:37:40.167Z,24.33
2022-11-22T09:40:11.372Z,23.63
2022-11-22T09:43:15.478Z,25.53
2022-11-22T09:46:18.330Z,21.47
2022-11-22T09:49:15.538Z,23.83
2022-11-22T09:51:50.854Z,23.30
2022-11-22T09:54:25.652Z,22.93
2022-11-22T09:57:00.693Z,23.90
2022-11-22T09:59:34.920Z,23.30
2022-11-22T10:02:18.532Z,24.97
2022-11-22T10:04:56.197Z,21.00
2022-11-22T10:07:32.765Z,20.60
2022-11-22T10:10:07.976Z,23.73
2022-11-22T10:12:47.360Z,23.57
2022-11-22T10:15:30.035Z,25.23
2022-11-22T10:18:02.455Z,20.60
2022-11-22T10:20:45.701Z,23.03
2022-11-22T10:23:20.716Z,24.53
2022-11-22T10:25:58.346Z,22.57
2022-11-22T10:28:35.355Z,22.97
2022-11-22T10:31:11.965Z,22.43
2022-11-22T10:33:46.107Z,20.63
2022-11-22T10:36:32.379Z,20.37
2022-11-22T10:39:34.652Z,19.03
2022-11-22T10:42:40.379Z,19.27
2022-11-22T10:45:19.363Z,20.17
2022-11-22T10:48:05.982Z,18.13
2022-11-22T10:50:50.789Z,21.50
2022-11-22T10:53:32.055Z,20.23
2022-11-22T10:56:18.614Z,21.27
2022-11-22T10:59:06.147Z,17.90
2022-11-22T11:01:45.619Z,22.93
2022-11-22T11:04:15.369Z,20.87
2022-11-22T11:07:10.994Z,22.00
2022-11-22T11:13:04.316Z,21.80
2022-11-22T11:15:39.322Z,19.53
2022-11-22T11:18:17.789Z,17.97
2022-11-22T11:20:47.845Z,20.23
2022-11-22T11:23:16.367Z,20.93
2022-11-22T11:25:46.919Z,18.20
2022-11-22T11:28:20.797Z,18.03
2022-11-22T11:30:53.215Z,18.07
2022-11-22T11:33:28.351Z,19.40
2022-11-22T11:36:02.602Z,15.63
2022-11-22T11:38:34.199Z,16.90
2022-11-22T11:41:21.668Z,17.23
2022-11-22T11:43:51.465Z,21.27
2022-11-22T11:46:21.003Z,16.53
2022-11-22T11:48:51.478Z,16.13
2022-11-22T11:51:25.810Z,14.97
2022-11-22T11:54:05.703Z,14.93
2022-11-22T11:56:40.573Z,19.20
2022-11-22T11:59:17.168Z,18.60
2022-11-22T12:01:58.624Z,19.70
2022-11-22T12:04:32.032Z,18.43
2022-11-22T12:07:04.316Z,16.60
2022-11-22T12:09:36.294Z,15.97
2022-11-22T12:12:29.811Z,16.87
2022-11-22T12:15:11.859Z,17.57
2022-11-22T12:17:51.348Z,16.13
2022-11-22T12:20:27.995Z,17.97
2022-11-22T12:23:14.511Z,16.37
2022-11-22T12:25:44.635Z,15.03
2022-11-22T12:28:19.115Z,13.30
2022-11-22T12:30:51.791Z,14.90
2022-11-22T12:33:27.831Z,16.80
2022-11-22T12:35:58.171Z,14.70
2022-11-22T12:38:32.333Z,13.20
2022-11-22T12:41:04.306Z,13.90
2022-11-22T12:43:41.684Z,14.07
2022-11-22T12:46:13.655Z,12.60
2022-11-22T12:48:49.143Z,13.87
2022-11-22T12:51:27.768Z,14.97
2022-11-22T12:54:01.879Z,12.90
2022-11-22T12:56:36.619Z,13.37
2022-11-22T12:59:21.695Z,14.03
2022-11-22T13:01:58.218Z,13.63
2022-11-22T13:04:34.264Z,13.50
2022-11-22T13:07:15.016Z,14.17
2022-11-22T13:09:51.132Z,21.10
2022-11-22T13:12:26.063Z,15.57
2022-11-22T13:14:55.489Z,15.47
2022-11-22T13:17:25.872Z,14.63
2022-11-22T13:19:59.983Z,16.07
2022-11-22T13:22:42.432Z,15.90
2022-11-22T13:25:39.744Z,14.27
2022-11-22T13:28:14.035Z,17.50
2022-11-22T13:31:06.599Z,15.63
2022-11-22T13:33:36.378Z,16.03
2022-11-22T13:36:24.811Z,16.60
2022-11-22T13:38:54.930Z,16.90
2022-11-22T13:41:28.232Z,14.70
2022-11-22T13:43:58.644Z,12.83
2022-11-22T13:46:57.423Z,13.87
2022-11-22T13:49:43.650Z,14.53
2022-11-22T13:52:51.910Z,13.10
2022-11-22T13:55:41.596Z,16.83
2022-11-22T13:58:55.509Z,14.03
2022-11-22T14:02:05.625Z,14.03
2022-11-22T14:04:43.493Z,14.47
2022-11-22T14:07:33.209Z,13.87
2022-11-22T14:10:02.308Z,13.07
2022-11-22T14:12:59.585Z,17.60
2022-11-22T14:15:51.097Z,12.47
2022-11-22T14:18:45.734Z,13.07
2022-11-22T14:21:38.800Z,14.60
2022-11-22T14:24:16.728Z,14.13
2022-11-22T14:26:58.879Z,16.23
2022-11-22T14:30:13.682Z,15.37
2022-11-22T14:32:58.278Z,16.50
2022-11-22T14:35:34.364Z,14.33
2022-11-22T14:38:28.923Z,14.17
2022-11-22T14:41:44.525Z,16.83
2022-11-22T14:44:19.754Z,14.10
2022-11-22T14:46:56.953Z,18.43
2022-11-22T14:49:40.862Z,16.60
2022-11-22T14:52:21.647Z,15.20
2022-11-22T14:54:54.349Z,16.97
2022-11-22T14:57:25.448Z,14.83
2022-11-22T15:00:18.814Z,14.97
2022-11-22T15:03:41.772Z,13.80
2022-11-22T15:09:16.586Z,12.33
2022-11-22T15:09:59.414Z,14.20
2022-11-22T15:13:08.068Z,15.20
2022-11-22T15:57:29.425Z,13.03
2022-11-22T15:59:57.359Z,17.00
2022-11-22T16:02:29.789Z,14.37
2022-11-22T16:06:07.070Z,16.27
2022-11-22T16:07:50.343Z,15.97
2022-11-22T16:10:22.918Z,18.03
2022-11-22T16:12:51.232Z,14.87
2022-11-22T16:15:29.756Z,13.50
2022-11-22T16:18:08.805Z,13.93
2022-11-22T16:20:37.663Z,13.87
2022-11-22T16:23:22.474Z,16.17
2022-11-22T16:25:59.931Z,16.20
2022-11-22T16:28:34.080Z,15.17
2022-11-22T16:31:16.313Z,16.43
2022-11-22T16:33:44.229Z,15.73
2022-11-22T16:36:14.522Z,15.60
2022-11-22T16:38:42.986Z,16.37
2022-11-22T16:41:19.482Z,17.47
2022-11-22T16:43:51.238Z,14.90
2022-11-22T16:46:20.311Z,13.70
2022-11-22T16:48:48.653Z,19.93
2022-11-22T16:51:23.081Z,15.30
2022-11-22T16:53:53.178Z,19.77
2022-11-22T16:56:23.958Z,16.23
2022-11-22T16:58:53.961Z,14.83
2022-11-22T17:01:26.462Z,14.33
2022-11-22T17:03:56.773Z,17.27
2022-11-22T17:06:27.133Z,13.37
2022-11-22T17:08:56.217Z,18.73
2022-11-22T17:11:27.339Z,15.80
2022-11-22T17:13:54.813Z,17.20
2022-11-22T17:16:21.791Z,17.80
2022-11-22T17:18:49.002Z,17.23
2022-11-22T17:21:24.907Z,15.48
2022-11-22T17:23:55.911Z,17.98
2022-11-22T17:26:25.439Z,13.77
2022-11-22T17:28:52.751Z,14.97
2022-11-22T17:31:23.000Z,15.20
2022-11-22T17:34:01.473Z,18.20
2022-11-22T17:36:31.249Z,13.50
2022-11-22T17:39:01.813Z,16.87
2022-11-22T17:41:30.563Z,16.30
2022-11-22T17:43:58.087Z,17.83
2022-11-22T17:46:25.320Z,17.70
2022-11-22T17:48:53.824Z,16.93
2022-11-22T17:51:21.891Z,16.70
2022-11-22T17:53:49.435Z,18.47
2022-11-22T17:56:17.101Z,16.63
2022-11-22T17:58:45.981Z,16.33
2022-11-22T18:01:15.342Z,20.67
2022-11-22T18:03:43.278Z,18.70
2022-11-22T18:06:11.810Z,18.03
2022-11-22T18:08:45.237Z,17.70
2022-11-22T18:11:14.302Z,21.63
2022-11-22T18:13:41.771Z,18.73
2022-11-22T18:16:14.600Z,17.90
2022-11-22T18:18:56.609Z,17.33
2022-11-22T18:21:25.146Z,22.67
2022-11-22T18:23:52.223Z,16.23
2022-11-22T18:31:54.927Z,17.37
2022-11-22T18:34:22.622Z,21.93
2022-11-22T18:37:01.948Z,16.87
2022-11-22T18:39:31.876Z,18.70
2022-11-22T18:41:59.213Z,17.20
2022-11-22T18:44:26.349Z,17.00
2022-11-22T18:46:54.702Z,21.73
2022-11-22T18:49:21.958Z,25.43
2022-11-22T18:51:48.977Z,22.60
2022-11-22T18:54:16.524Z,17.33
2022-11-22T18:56:43.509Z,21.77
2022-11-22T18:59:12.624Z,20.23
2022-11-22T19:01:40.632Z,19.53
2022-11-22T19:04:12.495Z,20.03
2022-11-22T19:06:40.484Z,21.20
2022-11-22T19:09:08.139Z,18.77
2022-11-22T19:11:35.263Z,18.27
2022-11-22T19:14:02.670Z,16.90
2022-11-22T19:16:30.146Z,17.50
2022-11-22T19:18:57.585Z,19.93
2022-11-22T19:21:28.490Z,17.90
2022-11-22T19:23:56.303Z,17.67
2022-11-22T19:26:25.532Z,23.13
2022-11-22T19:28:57.666Z,20.07
2022-11-22T19:31:28.708Z,21.10
2022-11-22T19:33:56.044Z,20.77
2022-11-22T19:36:32.598Z,18.53
2022-11-22T19:39:01.087Z,19.63
2022-11-22T19:41:28.119Z,17.73
2022-11-22T19:43:56.474Z,17.40
2022-11-22T19:46:24.292Z,19.67
2022-11-22T19:48:52.697Z,19.67
2022-11-22T19:51:20.464Z,18.70
2022-11-22T19:53:49.143Z,17.47
2022-11-22T19:56:18.587Z,16.70
2022-11-22T19:58:51.679Z,19.13
2022-11-22T20:01:19.366Z,17.60
2022-11-22T20:03:51.306Z,19.10
2022-11-22T20:06:19.050Z,18.17
2022-11-22T20:08:47.582Z,18.10
2022-11-22T20:11:17.200Z,15.53
2022-11-22T20:13:46.886Z,17.20
2022-11-22T20:16:46.831Z,16.63
2022-11-22T20:19:15.542Z,15.70
2022-11-22T20:21:42.607Z,16.47
2022-11-22T20:24:12.939Z,17.50
2022-11-22T20:26:40.536Z,16.03
2022-11-22T20:29:11.253Z,13.93
2022-11-22T20:31:40.393Z,14.43
2022-11-22T20:34:07.502Z,15.13
2022-11-22T20:36:35.522Z,15.53
2022-11-22T20:39:08.570Z,13.83
2022-11-22T20:41:40.414Z,13.50
2022-11-22T20:44:11.579Z,14.17
2022-11-22T20:46:38.609Z,14.97
2022-11-22T20:49:06.735Z,12.87
2022-11-22T20:51:39.467Z,14.13
2022-11-22T20:54:07.197Z,14.80
2022-11-22T20:56:34.286Z,13.27
2022-11-22T20:59:02.651Z,11.60
2022-11-22T21:01:31.687Z,14.03
2022-11-22T21:03:58.823Z,12.57
2022-11-22T21:06:27.573Z,16.10
2022-11-22T21:08:55.260Z,13.77
2022-11-22T21:11:26.302Z,11.93
2022-11-22T21:13:53.961Z,12.03
2022-11-22T21:16:25.065Z,13.30
2022-11-22T21:18:53.573Z,11.70
2022-11-22T21:21:25.082Z,11.53
2022-11-22T21:23:54.182Z,11.83
2022-11-22T21:26:22.581Z,12.50
2022-11-22T21:28:50.274Z,12.23
2022-11-22T21:31:18.190Z,12.53
2022-11-22T21:33:47.651Z,11.07
2022-11-22T21:36:14.964Z,13.10
2022-11-22T21:38:42.126Z,11.37
2022-11-22T21:44:00.977Z,12.63
2022-11-22T21:46:27.916Z,11.60
2022-11-22T21:48:56.450Z,11.07
2022-11-22T21:51:25.879Z,10.80
2022-11-22T21:53:57.498Z,11.47
2022-11-22T21:56:24.689Z,11.07
2022-11-22T21:58:51.666Z,8.57
2022-11-22T22:01:18.653Z,10.40
2022-11-22T22:03:45.662Z,10.27
2022-11-22T22:06:14.364Z,10.27
2022-11-22T22:08:41.377Z,13.00
2022-11-22T22:11:08.399Z,11.30
2022-11-22T22:13:35.491Z,10.90
2022-11-22T22:16:06.546Z,11.93
2022-11-22T22:18:35.711Z,13.07
2022-11-22T22:21:05.634Z,11.43
2022-11-22T22:23:35.652Z,12.30
2022-11-22T22:26:05.255Z,7.80
2022-11-22T22:28:34.778Z,13.80
2022-11-22T22:31:04.765Z,13.07
2022-11-22T22:33:32.114Z,9.73
2022-11-22T22:35:59.511Z,9.63
2022-11-22T22:38:26.768Z,8.03
2022-11-22T22:40:56.603Z,9.40
2022-11-22T22:43:24.397Z,10.23
2022-11-22T22:45:51.856Z,8.93
2022-11-22T22:48:19.257Z,11.63
2022-11-22T22:50:46.266Z,8.80
2022-11-22T22:53:13.543Z,10.47
2022-11-22T22:55:40.555Z,8.60
2022-11-22T22:58:12.088Z,8.33
2022-11-22T23:00:39.457Z,9.47
2022-11-22T23:03:06.509Z,8.23
2022-11-22T23:05:33.451Z,10.47
2022-11-22T23:08:00.383Z,8.03
2022-11-22T23:10:27.775Z,12.97
2022-11-22T23:12:54.724Z,6.10
2022-11-22T23:15:43.821Z,10.27
2022-11-22T23:18:10.054Z,11.23
2022-11-22T23:20:37.036Z,7.60
2022-11-22T23:23:03.975Z,6.47
2022-11-22T23:25:31.078Z,6.40
2022-11-22T23:27:58.866Z,8.50
2022-11-22T23:30:27.548Z,6.83
2022-11-22T23:32:54.483Z,8.80
2022-11-22T23:35:21.669Z,9.77
2022-11-22T23:37:48.608Z,7.73
2022-11-22T23:40:15.826Z,6.97
2022-11-22T23:42:42.767Z,8.43
2022-11-22T23:45:10.618Z,6.57
2022-11-22T23:47:38.924Z,8.70
2022-11-22T23:50:06.944Z,6.27
2022-11-22T23:52:33.879Z,8.00
2022-11-22T23:55:00.817Z,6.57
2022-11-22T23:57:27.810Z,7.50
2022-11-22T23:59:54.750Z,7.33
